createdAt,value
2023-04-03T00:01:12.892Z,100.00
2023-04-03T00:03:40.273Z,100.00
2023-04-03T00:06:08.085Z,100.00
2023-04-03T00:08:35.966Z,100.00
2023-04-03T00:11:04.750Z,100.00
2023-04-03T00:13:34.240Z,100.00
2023-04-03T00:16:01.657Z,100.00
2023-04-03T00:18:28.760Z,100.00
2023-04-03T00:20:55.829Z,100.00
2023-04-03T00:23:24.530Z,100.00
2023-04-03T00:25:54.232Z,100.00
2023-04-03T00:28:21.519Z,100.00
2023-04-03T00:30:51.527Z,100.00
2023-04-03T00:33:20.326Z,100.00
2023-04-03T00:35:47.264Z,100.00
2023-04-03T00:38:14.248Z,100.00
2023-04-03T00:40:46.719Z,100.00
2023-04-03T00:43:16.759Z,100.00
2023-04-03T00:45:47.611Z,100.00
2023-04-03T00:48:46.081Z,100.00
2023-04-03T00:51:21.426Z,100.00
2023-04-03T00:53:54.566Z,100.00
2023-04-03T00:56:25.100Z,100.00
2023-04-03T00:58:59.310Z,100.00
2023-04-03T01:01:29.540Z,100.00
2023-04-03T01:03:56.686Z,100.00
2023-04-03T01:06:32.181Z,100.00
2023-04-03T01:09:05.523Z,100.00
2023-04-03T01:11:33.466Z,100.00
2023-04-03T01:14:02.872Z,100.00
2023-04-03T01:16:32.660Z,100.00
2023-04-03T01:19:02.074Z,100.00
2023-04-03T01:21:37.816Z,100.00
2023-04-03T01:24:26.397Z,100.00
2023-04-03T01:26:53.769Z,100.00
2023-04-03T01:29:21.337Z,100.00
2023-04-03T01:31:57.659Z,100.00
2023-04-03T01:34:26.002Z,100.00
2023-04-03T01:36:53.631Z,100.00
2023-04-03T01:39:22.208Z,100.00
2023-04-03T01:41:50.306Z,100.00
2023-04-03T01:44:30.063Z,100.00
2023-04-03T01:46:57.002Z,100.00
2023-04-03T01:49:25.500Z,100.00
2023-04-03T01:51:52.438Z,100.00
2023-04-03T01:54:19.469Z,100.00
2023-04-03T01:56:46.531Z,100.00
2023-04-03T01:59:14.149Z,100.00
2023-04-03T02:01:41.631Z,100.00
2023-04-03T02:04:08.859Z,100.00
2023-04-03T02:06:35.961Z,100.00
2023-04-03T02:09:03.385Z,100.00
2023-04-03T02:11:31.647Z,100.00
2023-04-03T02:13:58.601Z,100.00
2023-04-03T02:16:25.635Z,100.00
2023-04-03T02:18:52.648Z,100.00
2023-04-03T02:21:19.602Z,100.00
2023-04-03T02:23:46.548Z,100.00
2023-04-03T02:26:16.737Z,100.00
2023-04-03T02:28:45.897Z,100.00
2023-04-03T02:31:13.318Z,100.00
2023-04-03T02:33:42.271Z,100.00
2023-04-03T02:36:11.318Z,100.00
2023-04-03T02:38:41.404Z,100.00
2023-04-03T02:41:12.219Z,100.00
2023-04-03T02:43:39.778Z,100.00
2023-04-03T02:46:07.727Z,100.00
2023-04-03T02:48:36.254Z,100.00
2023-04-03T02:51:03.232Z,100.00
2023-04-03T02:53:30.248Z,100.00
2023-04-03T02:55:57.752Z,100.00
2023-04-03T02:58:24.901Z,100.00
2023-04-03T03:00:55.281Z,100.00
2023-04-03T03:03:22.224Z,100.00
2023-04-03T03:05:49.179Z,100.00
2023-04-03T03:08:16.387Z,100.00
2023-04-03T03:10:43.301Z,100.00
2023-04-03T03:13:10.196Z,100.00
2023-04-03T03:15:37.157Z,100.00
2023-04-03T03:18:04.231Z,100.00
2023-04-03T03:20:31.423Z,100.00
2023-04-03T03:22:59.085Z,100.00
2023-04-03T03:25:26.107Z,100.00
2023-04-03T03:27:53.078Z,100.00
2023-04-03T03:30:20.008Z,100.00
2023-04-03T03:32:48.005Z,100.00
2023-04-03T03:35:15.349Z,100.00
2023-04-03T03:37:42.340Z,100.00
2023-04-03T03:40:10.395Z,100.00
2023-04-03T03:42:38.403Z,100.00
2023-04-03T03:45:06.600Z,100.00
2023-04-03T03:47:33.521Z,100.00
2023-04-03T03:50:00.989Z,100.00
2023-04-03T03:52:28.205Z,100.00
2023-04-03T03:54:55.425Z,100.00
2023-04-03T03:57:22.752Z,100.00
2023-04-03T03:59:50.061Z,100.00
2023-04-03T04:02:19.077Z,100.00
2023-04-03T04:04:46.905Z,100.00
2023-04-03T04:07:14.555Z,100.00
2023-04-03T04:09:41.902Z,100.00
2023-04-03T04:12:09.922Z,100.00
2023-04-03T04:14:37.566Z,100.00
2023-04-03T04:17:06.752Z,100.00
2023-04-03T04:19:34.261Z,100.00
2023-04-03T04:22:01.482Z,100.00
2023-04-03T04:24:29.572Z,100.00
2023-04-03T04:26:57.519Z,100.00
2023-04-03T04:29:26.175Z,100.00
2023-04-03T04:31:53.764Z,100.00
2023-04-03T04:34:22.389Z,100.00
2023-04-03T04:36:49.733Z,100.00
2023-04-03T04:39:17.067Z,100.00
2023-04-03T04:41:44.113Z,100.00
2023-04-03T04:44:11.299Z,100.00
2023-04-03T04:46:39.029Z,100.00
2023-04-03T04:49:07.704Z,100.00
2023-04-03T04:51:41.054Z,100.00
2023-04-03T04:54:17.104Z,100.00
2023-04-03T04:56:46.098Z,100.00
2023-04-03T04:59:13.590Z,100.00
2023-04-03T05:01:41.341Z,100.00
2023-04-03T05:04:13.676Z,100.00
2023-04-03T05:06:41.099Z,100.00
2023-04-03T05:09:13.309Z,100.00
2023-04-03T05:11:44.001Z,100.00
2023-04-03T05:14:12.211Z,100.00
2023-04-03T05:16:40.089Z,100.00
2023-04-03T05:19:07.733Z,100.00
2023-04-03T05:21:35.130Z,100.00
2023-04-03T05:24:10.035Z,100.00
2023-04-03T05:26:39.764Z,100.00
2023-04-03T05:29:08.287Z,100.00
2023-04-03T05:31:35.462Z,100.00
2023-04-03T05:34:02.423Z,100.00
2023-04-03T05:36:31.918Z,100.00
2023-04-03T05:39:04.880Z,100.00
2023-04-03T05:41:33.399Z,100.00
2023-04-03T05:44:00.372Z,100.00
2023-04-03T05:46:27.692Z,100.00
2023-04-03T05:48:57.198Z,100.00
2023-04-03T05:51:34.162Z,100.00
2023-04-03T05:54:23.919Z,100.00
2023-04-03T05:56:53.409Z,100.00
2023-04-03T05:59:22.230Z,100.00
2023-04-03T06:01:52.513Z,100.00
2023-04-03T06:04:22.129Z,100.00
2023-04-03T06:06:54.714Z,100.00
2023-04-03T06:09:25.587Z,100.00
2023-04-03T06:11:53.198Z,100.00
2023-04-03T06:14:22.289Z,100.00
2023-04-03T06:16:49.659Z,100.00
2023-04-03T06:19:17.123Z,100.00
2023-04-03T06:21:48.431Z,100.00
2023-04-03T06:24:17.374Z,100.00
2023-04-03T06:26:44.885Z,100.00
2023-04-03T06:29:11.824Z,100.00
2023-04-03T06:31:38.925Z,100.00
2023-04-03T06:34:09.424Z,100.00
2023-04-03T06:36:36.691Z,100.00
2023-04-03T06:39:04.260Z,100.00
2023-04-03T06:41:31.406Z,100.00
2023-04-03T06:43:59.038Z,100.00
2023-04-03T06:46:27.697Z,100.00
2023-04-03T06:48:54.972Z,98.91
2023-04-03T06:51:24.361Z,97.07
2023-04-03T06:53:54.067Z,97.71
2023-04-03T06:56:22.267Z,98.66
2023-04-03T06:58:49.530Z,98.99
2023-04-03T07:01:20.198Z,96.75
2023-04-03T07:03:48.931Z,96.85
2023-04-03T07:06:18.258Z,94.79
2023-04-03T07:08:46.535Z,94.27
2023-04-03T07:11:14.092Z,92.85
2023-04-03T07:13:41.633Z,94.56
2023-04-03T07:16:09.861Z,90.81
2023-04-03T07:18:37.377Z,92.89
2023-04-03T07:21:05.927Z,92.09
2023-04-03T07:23:33.015Z,89.98
2023-04-03T07:26:03.675Z,89.10
2023-04-03T07:28:30.754Z,90.16
2023-04-03T07:31:09.222Z,89.73
2023-04-03T07:33:36.656Z,89.68
2023-04-03T07:36:05.648Z,88.32
2023-04-03T07:38:32.657Z,87.24
2023-04-03T07:40:59.550Z,86.97
2023-04-03T07:43:27.002Z,86.15
2023-04-03T07:45:55.199Z,85.73
2023-04-03T07:48:25.775Z,84.47
2023-04-03T07:50:53.411Z,84.85
2023-04-03T07:53:20.889Z,84.24
2023-04-03T07:55:50.005Z,82.89
2023-04-03T07:58:19.556Z,83.28
2023-04-03T08:00:48.210Z,82.89
2023-04-03T08:03:17.650Z,83.18
2023-04-03T08:05:51.808Z,82.47
2023-04-03T08:08:22.974Z,82.87
2023-04-03T08:10:54.673Z,81.89
2023-04-03T08:13:22.828Z,79.61
2023-04-03T08:15:50.230Z,77.45
2023-04-03T08:18:18.070Z,78.93
2023-04-03T08:20:45.936Z,79.31
2023-04-03T08:23:12.907Z,76.86
2023-04-03T08:25:41.938Z,76.34
2023-04-03T08:28:10.930Z,75.46
2023-04-03T08:30:43.417Z,74.46
2023-04-03T08:33:11.450Z,74.83
2023-04-03T08:35:42.813Z,73.50
2023-04-03T08:38:11.017Z,72.72
2023-04-03T08:40:38.778Z,72.70
2023-04-03T08:43:35.707Z,74.55
2023-04-03T08:46:07.003Z,72.35
2023-04-03T08:48:43.267Z,73.31
2023-04-03T08:51:21.862Z,71.54
2023-04-03T08:54:04.511Z,71.31
2023-04-03T08:56:34.846Z,69.32
2023-04-03T08:59:06.723Z,68.30
2023-04-03T09:01:41.064Z,68.97
2023-04-03T09:04:27.073Z,68.69
2023-04-03T09:07:12.105Z,68.56
2023-04-03T09:09:43.733Z,66.73
2023-04-03T09:12:26.662Z,67.04
2023-04-03T09:15:27.845Z,68.32
2023-04-03T09:18:23.387Z,65.89
2023-04-03T09:21:18.371Z,65.72
2023-04-03T09:23:54.589Z,66.86
2023-04-03T09:26:37.656Z,64.90
2023-04-03T09:29:09.321Z,66.13
2023-04-03T09:31:43.928Z,64.86
2023-04-03T09:34:27.681Z,63.07
2023-04-03T09:36:58.757Z,61.88
2023-04-03T09:39:30.031Z,60.26
2023-04-03T09:42:07.474Z,58.20
2023-04-03T09:44:40.061Z,59.49
2023-04-03T09:47:37.770Z,58.60
2023-04-03T09:50:14.276Z,56.53
2023-04-03T09:52:43.961Z,60.30
2023-04-03T09:55:30.992Z,57.47
2023-04-03T09:58:03.852Z,58.23
2023-04-03T10:00:41.281Z,59.13
2023-04-03T10:03:36.621Z,61.37
2023-04-03T10:06:05.586Z,57.37
2023-04-03T10:08:35.525Z,56.53
2023-04-03T10:11:17.714Z,56.43
2023-04-03T10:13:53.329Z,56.37
2023-04-03T10:16:46.599Z,57.23
2023-04-03T10:20:00.424Z,55.12
2023-04-03T10:23:03.089Z,56.65
2023-04-03T10:25:57.675Z,56.04
2023-04-03T10:29:21.815Z,56.73
2023-04-03T10:32:23.710Z,55.90
2023-04-03T10:35:34.073Z,54.40
2023-04-03T10:39:04.337Z,56.33
2023-04-03T10:42:13.340Z,54.03
2023-04-03T10:45:19.554Z,54.83
2023-04-03T10:48:23.888Z,54.42
2023-04-03T10:51:12.744Z,56.01
2023-04-03T10:53:51.769Z,55.61
2023-04-03T10:56:39.604Z,53.55
2023-04-03T10:59:37.871Z,54.54
2023-04-03T11:02:31.620Z,56.57
2023-04-03T11:05:17.124Z,54.80
2023-04-03T11:07:51.686Z,56.14
2023-04-03T11:10:27.613Z,56.35
2023-04-03T11:13:12.931Z,55.21
2023-04-03T11:15:40.425Z,57.22
2023-04-03T11:18:37.233Z,56.13
2023-04-03T11:21:24.076Z,55.75
2023-04-03T11:23:53.097Z,54.87
2023-04-03T11:26:23.932Z,53.88
2023-04-03T11:29:05.299Z,50.49
2023-04-03T11:32:15.797Z,52.45
2023-04-03T11:34:47.001Z,49.85
2023-04-03T11:37:36.691Z,51.41
2023-04-03T11:40:22.733Z,54.14
2023-04-03T11:43:01.300Z,53.03
2023-04-03T11:46:00.397Z,50.26
2023-04-03T11:48:33.034Z,51.48
2023-04-03T11:51:29.154Z,51.91
2023-04-03T11:54:42.094Z,48.35
2023-04-03T11:57:32.879Z,49.38
2023-04-03T11:59:59.896Z,49.67
2023-04-03T12:05:30.823Z,48.51
2023-04-03T12:08:31.969Z,49.53
2023-04-03T12:11:14.376Z,49.58
2023-04-03T12:13:50.800Z,49.94
2023-04-03T12:16:28.625Z,51.62
2023-04-03T12:19:05.225Z,50.33
2023-04-03T12:21:35.080Z,51.30
2023-04-03T12:24:11.818Z,53.54
2023-04-03T12:26:49.034Z,54.37
2023-04-03T12:29:24.697Z,52.34
2023-04-03T12:32:28.334Z,53.60
2023-04-03T12:35:38.494Z,50.83
2023-04-03T12:38:42.364Z,49.73
2023-04-03T12:41:14.988Z,49.17
2023-04-03T12:44:22.212Z,48.99
2023-04-03T12:47:39.846Z,47.05
2023-04-03T12:50:31.158Z,47.04
2023-04-03T12:53:05.629Z,46.84
2023-04-03T12:55:32.786Z,47.69
2023-04-03T12:58:17.738Z,47.14
2023-04-03T13:00:44.722Z,45.23
2023-04-03T13:03:27.883Z,45.46
2023-04-03T13:06:02.940Z,45.00
2023-04-03T13:08:31.491Z,44.51
2023-04-03T13:11:07.386Z,45.69
2023-04-03T13:13:34.409Z,46.50
2023-04-03T13:16:11.525Z,46.68
2023-04-03T13:18:39.148Z,48.03
2023-04-03T13:21:21.299Z,47.53
2023-04-03T13:23:57.672Z,46.24
2023-04-03T13:26:33.804Z,45.63
2023-04-03T13:29:06.032Z,45.62
2023-04-03T13:31:39.491Z,45.94
2023-04-03T13:34:18.653Z,46.66
2023-04-03T13:36:52.163Z,46.54
2023-04-03T13:39:19.035Z,46.22
2023-04-03T13:41:52.868Z,46.92
2023-04-03T13:44:22.864Z,47.27
2023-04-03T13:46:59.062Z,46.88
2023-04-03T13:49:42.593Z,44.47
2023-04-03T13:52:22.950Z,43.75
2023-04-03T13:55:07.869Z,43.28
2023-04-03T13:57:37.151Z,43.10
2023-04-03T14:00:35.210Z,43.54
2023-04-03T14:03:02.893Z,41.69
2023-04-03T14:05:30.003Z,42.58
2023-04-03T14:07:57.873Z,41.49
2023-04-03T14:10:24.832Z,42.57
2023-04-03T14:12:52.167Z,41.53
2023-04-03T14:15:29.797Z,42.89
2023-04-03T14:17:57.264Z,44.54
2023-04-03T14:20:27.541Z,44.50
2023-04-03T14:22:54.761Z,45.30
2023-04-03T14:25:24.736Z,44.08
2023-04-03T14:27:54.728Z,43.52
2023-04-03T14:30:30.728Z,43.11
2023-04-03T14:32:58.142Z,43.16
2023-04-03T14:35:26.056Z,42.04
2023-04-03T14:37:54.834Z,42.12
2023-04-03T14:40:30.969Z,43.23
2023-04-03T14:42:58.415Z,43.87
2023-04-03T14:45:25.465Z,43.16
2023-04-03T14:47:55.565Z,40.63
2023-04-03T14:50:28.386Z,41.07
2023-04-03T14:52:59.482Z,41.02
2023-04-03T14:55:27.041Z,41.87
2023-04-03T14:57:54.699Z,42.00
2023-04-03T15:00:23.423Z,42.17
2023-04-03T15:02:50.984Z,40.63
2023-04-03T15:05:18.223Z,43.04
2023-04-03T15:07:55.687Z,41.74
2023-04-03T15:10:26.986Z,42.38
2023-04-03T15:12:54.253Z,42.62
2023-04-03T15:15:23.116Z,43.99
2023-04-03T15:17:55.235Z,44.31
2023-04-03T15:20:27.802Z,43.13
2023-04-03T15:22:57.392Z,43.52
2023-04-03T15:25:26.188Z,43.80
2023-04-03T15:27:57.816Z,44.66
2023-04-03T15:30:25.331Z,44.72
2023-04-03T15:32:52.513Z,43.27
2023-04-03T15:35:19.987Z,42.84
2023-04-03T15:37:47.218Z,43.40
2023-04-03T15:40:14.202Z,42.17
2023-04-03T15:42:41.569Z,41.51
2023-04-03T15:45:09.757Z,41.63
2023-04-03T15:47:36.957Z,41.26
2023-04-03T15:50:07.018Z,42.31
2023-04-03T15:52:33.954Z,41.08
2023-04-03T15:55:00.965Z,42.09
2023-04-03T15:57:27.979Z,41.45
2023-04-03T15:59:55.113Z,42.56
2023-04-03T16:02:22.424Z,43.32
2023-04-03T16:04:50.044Z,44.70
2023-04-03T16:07:17.048Z,43.10
2023-04-03T16:09:43.969Z,42.52
2023-04-03T16:12:10.902Z,43.69
2023-04-03T16:14:37.961Z,44.61
2023-04-03T16:17:04.964Z,44.07
2023-04-03T16:19:31.879Z,45.61
2023-04-03T16:21:58.911Z,44.72
2023-04-03T16:24:25.886Z,44.89
2023-04-03T16:26:54.357Z,46.17
2023-04-03T16:29:21.428Z,43.83
2023-04-03T16:31:48.515Z,44.94
2023-04-03T16:34:16.346Z,45.53
2023-04-03T16:36:43.329Z,46.58
2023-04-03T16:39:13.011Z,46.38
2023-04-03T16:41:39.942Z,45.63
2023-04-03T16:44:08.459Z,44.18
2023-04-03T16:46:35.807Z,45.79
2023-04-03T16:49:02.917Z,44.71
2023-04-03T16:51:30.103Z,44.97
2023-04-03T16:53:57.185Z,45.78
2023-04-03T16:56:24.587Z,46.41
2023-04-03T16:58:51.670Z,46.74
2023-04-03T17:01:21.230Z,47.47
2023-04-03T17:03:48.991Z,48.10
2023-04-03T17:06:21.462Z,48.67
2023-04-03T17:08:51.282Z,48.67
2023-04-03T17:11:29.190Z,48.56
2023-04-03T17:13:56.240Z,48.61
2023-04-03T17:16:24.448Z,49.12
2023-04-03T17:18:52.989Z,49.21
2023-04-03T17:21:20.886Z,48.56
2023-04-03T17:23:53.580Z,49.26
2023-04-03T17:26:22.240Z,49.57
2023-04-03T17:28:49.288Z,50.70
2023-04-03T17:31:16.230Z,50.96
2023-04-03T17:33:43.389Z,51.79
2023-04-03T17:36:10.631Z,51.68
2023-04-03T17:38:38.037Z,51.89
2023-04-03T17:41:08.301Z,52.74
2023-04-03T17:43:36.245Z,52.73
2023-04-03T17:46:09.686Z,53.40
2023-04-03T17:48:39.480Z,53.38
2023-04-03T17:51:13.298Z,52.21
2023-04-03T17:53:41.136Z,52.33
2023-04-03T17:56:15.054Z,52.44
2023-04-03T17:58:42.578Z,52.64
2023-04-03T18:01:16.719Z,52.51
2023-04-03T18:03:45.104Z,52.36
2023-04-03T18:06:15.887Z,52.71
2023-04-03T18:08:54.940Z,53.69
2023-04-03T18:11:27.323Z,53.51
2023-04-03T18:13:58.227Z,53.35
2023-04-03T18:16:26.409Z,53.78
2023-04-03T18:19:02.569Z,53.86
2023-04-03T18:21:41.896Z,53.82
2023-04-03T18:24:14.897Z,54.38
2023-04-03T18:26:44.505Z,54.22
2023-04-03T18:29:12.052Z,54.68
2023-04-03T18:31:44.453Z,55.40
2023-04-03T18:34:12.028Z,55.76
2023-04-03T18:36:39.291Z,55.66
2023-04-03T18:39:06.477Z,55.60
2023-04-03T18:41:35.279Z,56.61
2023-04-03T18:44:05.491Z,56.53
2023-04-03T18:46:32.768Z,56.45
2023-04-03T18:49:00.263Z,57.67
2023-04-03T18:51:27.663Z,57.03
2023-04-03T18:53:54.637Z,57.87
2023-04-03T18:56:22.303Z,58.00
2023-04-03T18:58:49.376Z,58.38
2023-04-03T19:01:16.604Z,58.73
2023-04-03T19:03:43.867Z,58.39
2023-04-03T19:06:11.046Z,58.21
2023-04-03T19:08:37.991Z,58.60
2023-04-03T19:11:05.286Z,58.47
2023-04-03T19:13:32.573Z,58.64
2023-04-03T19:16:00.032Z,58.51
2023-04-03T19:18:27.821Z,58.45
2023-04-03T19:20:56.943Z,58.60
2023-04-03T19:23:24.990Z,58.17
2023-04-03T19:26:04.793Z,58.13
2023-04-03T19:28:31.900Z,58.25
2023-04-03T19:31:01.160Z,59.05
2023-04-03T19:33:28.817Z,59.45
2023-04-03T19:35:55.837Z,59.16
2023-04-03T19:38:22.886Z,59.24
2023-04-03T19:40:49.849Z,59.54
2023-04-03T19:43:17.086Z,59.83
2023-04-03T19:45:46.449Z,59.82
2023-04-03T19:48:13.777Z,60.67
2023-04-03T19:50:41.103Z,62.39
2023-04-03T19:53:18.496Z,60.72
2023-04-03T19:55:46.974Z,60.32
2023-04-03T19:58:14.011Z,60.44
2023-04-03T20:00:41.256Z,60.66
2023-04-03T20:03:08.352Z,60.20
2023-04-03T20:05:35.413Z,60.20
2023-04-03T20:08:02.360Z,60.32
2023-04-03T20:10:29.258Z,60.75
2023-04-03T20:12:56.369Z,60.58
2023-04-03T20:15:23.296Z,61.03
2023-04-03T20:17:50.477Z,60.66
2023-04-03T20:20:21.078Z,61.21
2023-04-03T20:22:48.702Z,61.34
2023-04-03T20:25:23.941Z,61.18
2023-04-03T20:28:03.546Z,61.14
2023-04-03T20:30:30.462Z,61.57
2023-04-03T20:32:59.031Z,62.52
2023-04-03T20:35:27.770Z,62.26
2023-04-03T20:37:54.991Z,62.36
2023-04-03T20:40:21.942Z,62.28
2023-04-03T20:42:51.579Z,63.25
2023-04-03T20:45:21.268Z,63.54
2023-04-03T20:47:49.555Z,63.82
2023-04-03T20:50:16.650Z,63.48
2023-04-03T20:52:43.625Z,63.06
2023-04-03T20:55:11.013Z,64.84
2023-04-03T20:57:39.549Z,65.32
2023-04-03T21:00:16.725Z,64.07
2023-04-03T21:02:51.209Z,62.01
2023-04-03T21:05:18.415Z,62.77
2023-04-03T21:08:42.620Z,62.69
2023-04-03T21:12:11.050Z,63.40
2023-04-03T21:15:19.041Z,63.78
2023-04-03T21:18:27.011Z,64.46
2023-04-03T21:20:57.018Z,64.80
2023-04-03T21:23:33.894Z,65.61
2023-04-03T21:26:07.645Z,65.68
2023-04-03T21:28:40.636Z,65.78
2023-04-03T21:31:08.464Z,65.47
2023-04-03T21:33:41.504Z,66.04
2023-04-03T21:36:12.449Z,65.74
2023-04-03T21:38:42.656Z,66.39
2023-04-03T21:41:09.724Z,65.99
2023-04-03T21:43:37.221Z,66.48
2023-04-03T21:46:05.660Z,66.14
2023-04-03T21:48:32.727Z,66.65
2023-04-03T21:51:04.787Z,66.48
2023-04-03T21:53:36.307Z,66.44
2023-04-03T21:56:03.286Z,66.65
2023-04-03T21:58:32.113Z,66.92
2023-04-03T22:01:12.696Z,67.11
2023-04-03T22:03:41.566Z,67.42
2023-04-03T22:06:09.986Z,67.31
2023-04-03T22:08:37.679Z,67.36
2023-04-03T22:11:09.879Z,67.21
2023-04-03T22:13:37.500Z,67.44
2023-04-03T22:16:04.826Z,67.42
2023-04-03T22:18:32.648Z,67.35
2023-04-03T22:20:59.694Z,67.55
2023-04-03T22:23:27.404Z,68.88
2023-04-03T22:26:11.318Z,67.85
2023-04-03T22:28:41.398Z,68.00
2023-04-03T22:31:09.669Z,68.38
2023-04-03T22:33:37.544Z,68.70
2023-04-03T22:36:06.037Z,68.83
2023-04-03T22:38:33.509Z,69.77
2023-04-03T22:41:07.901Z,69.71
2023-04-03T22:43:37.437Z,69.49
2023-04-03T22:46:09.241Z,69.41
2023-04-03T22:48:38.562Z,69.49
2023-04-03T22:51:09.322Z,70.18
2023-04-03T22:53:37.351Z,70.26
2023-04-03T22:56:10.878Z,69.82
2023-04-03T22:58:38.895Z,70.06
2023-04-03T23:01:13.630Z,69.95
2023-04-03T23:03:42.415Z,69.98
2023-04-03T23:06:10.409Z,69.75
2023-04-03T23:08:39.031Z,70.08
2023-04-03T23:11:12.617Z,69.72
2023-04-03T23:13:39.561Z,69.89
2023-04-03T23:16:06.802Z,69.32
2023-04-03T23:18:33.935Z,69.53
2023-04-03T23:21:03.500Z,70.02
2023-04-03T23:23:31.139Z,69.61
2023-04-03T23:26:02.722Z,69.89
2023-04-03T23:28:30.162Z,69.92
2023-04-03T23:31:07.038Z,70.01
2023-04-03T23:33:34.497Z,70.55
2023-04-03T23:36:07.519Z,70.92
2023-04-03T23:38:35.410Z,71.37
2023-04-03T23:41:02.432Z,71.00
2023-04-03T23:43:29.384Z,71.33
2023-04-03T23:45:56.343Z,72.03
2023-04-03T23:48:23.267Z,72.01
2023-04-03T23:50:50.198Z,71.84
2023-04-03T23:53:17.179Z,71.92
2023-04-03T23:55:44.238Z,71.41
2023-04-03T23:58:11.155Z,71.03
